createdAt,value
2023-04-22T00:02:25.119Z,2.58
2023-04-22T00:04:53.207Z,2.30
2023-04-22T00:07:21.207Z,2.00
2023-04-22T00:09:48.974Z,2.28
2023-04-22T00:12:18.036Z,2.47
2023-04-22T00:14:45.729Z,3.00
2023-04-22T00:17:13.438Z,2.92
2023-04-22T00:19:42.079Z,2.22
2023-04-22T00:22:09.856Z,2.42
2023-04-22T00:24:37.565Z,2.30
2023-04-22T00:27:05.310Z,2.45
2023-04-22T00:29:34.442Z,2.72
2023-04-22T00:32:02.144Z,2.67
2023-04-22T00:34:29.930Z,2.22
2023-04-22T00:36:57.980Z,2.22
2023-04-22T00:39:25.722Z,2.38
2023-04-22T00:41:54.287Z,2.60
2023-04-22T00:44:23.435Z,2.30
2023-04-22T00:46:53.070Z,2.83
2023-04-22T00:49:21.370Z,3.08
2023-04-22T00:51:49.149Z,2.60
2023-04-22T00:54:17.042Z,3.35
2023-04-22T00:56:46.025Z,3.00
2023-04-22T00:59:13.949Z,2.92
2023-04-22T01:01:41.699Z,3.58
2023-04-22T01:04:12.773Z,3.08
2023-04-22T01:06:41.029Z,3.72
2023-04-22T01:09:09.021Z,3.50
2023-04-22T01:11:36.946Z,4.15
2023-04-22T01:14:05.574Z,3.53
2023-04-22T01:16:35.454Z,4.40
2023-04-22T01:19:03.304Z,4.03
2023-04-22T01:21:33.565Z,3.42
2023-04-22T01:24:03.293Z,3.75
2023-04-22T01:26:31.113Z,4.63
2023-04-22T01:28:59.255Z,4.90
2023-04-22T01:31:27.041Z,3.80
2023-04-22T01:33:55.626Z,3.40
2023-04-22T01:36:23.490Z,3.45
2023-04-22T01:38:51.248Z,3.40
2023-04-22T01:41:21.029Z,3.28
2023-04-22T01:43:49.099Z,3.70
2023-04-22T01:46:18.375Z,3.30
2023-04-22T01:48:50.359Z,3.20
2023-04-22T01:51:20.166Z,2.67
2023-04-22T01:53:48.084Z,3.00
2023-04-22T01:56:16.183Z,3.22
2023-04-22T01:58:45.505Z,3.13
2023-04-22T02:01:14.324Z,3.17
2023-04-22T02:03:42.329Z,3.30
2023-04-22T02:06:10.093Z,3.40
2023-04-22T02:08:38.201Z,3.40
2023-04-22T02:11:06.063Z,3.40
2023-04-22T02:13:37.210Z,2.88
2023-04-22T02:16:07.236Z,3.45
2023-04-22T02:18:35.358Z,3.38
2023-04-22T02:21:03.179Z,3.50
2023-04-22T02:23:31.232Z,3.42
2023-04-22T02:25:58.957Z,3.53
2023-04-22T02:28:26.807Z,3.42
2023-04-22T02:30:54.565Z,3.42
2023-04-22T02:33:23.688Z,3.38
2023-04-22T02:35:51.414Z,4.07
2023-04-22T02:38:19.848Z,3.53
2023-04-22T02:40:47.717Z,5.38
2023-04-22T02:43:15.466Z,3.30
2023-04-22T02:45:43.210Z,3.38
2023-04-22T02:48:10.993Z,4.45
2023-04-22T02:50:40.420Z,3.72
2023-04-22T02:53:09.256Z,3.58
2023-04-22T02:55:37.053Z,4.25
2023-04-22T02:58:04.862Z,4.00
2023-04-22T03:00:32.687Z,4.05
2023-04-22T03:03:00.792Z,4.45
2023-04-22T03:05:28.868Z,4.10
2023-04-22T03:07:57.886Z,4.53
2023-04-22T03:10:25.662Z,3.90
2023-04-22T03:12:53.402Z,4.50
2023-04-22T03:15:21.861Z,4.97
2023-04-22T03:17:50.331Z,4.28
2023-04-22T03:20:18.465Z,4.18
2023-04-22T03:22:46.205Z,4.40
2023-04-22T03:25:15.323Z,3.90
2023-04-22T03:27:43.124Z,4.32
2023-04-22T03:30:11.453Z,4.47
2023-04-22T03:32:39.267Z,4.43
2023-04-22T03:35:08.006Z,4.05
2023-04-22T03:37:35.827Z,4.60
2023-04-22T03:40:05.617Z,4.15
2023-04-22T03:42:34.699Z,4.18
2023-04-22T03:45:02.439Z,4.80
2023-04-22T03:47:30.274Z,3.97
2023-04-22T03:49:58.054Z,5.20
2023-04-22T03:52:25.895Z,4.95
2023-04-22T03:54:53.696Z,4.90
2023-04-22T03:57:21.393Z,4.80
2023-04-22T03:59:50.434Z,5.22
2023-04-22T04:02:18.264Z,6.75
2023-04-22T04:04:46.580Z,5.07
2023-04-22T04:07:15.059Z,4.97
2023-04-22T04:09:42.883Z,4.70
2023-04-22T04:12:10.718Z,4.80
2023-04-22T04:14:38.542Z,4.80
2023-04-22T04:17:10.225Z,5.55
2023-04-22T04:19:38.774Z,4.93
2023-04-22T04:22:06.846Z,5.03
2023-04-22T04:24:36.546Z,4.75
2023-04-22T04:27:04.562Z,5.18
2023-04-22T04:29:32.240Z,5.00
2023-04-22T04:31:59.968Z,4.97
2023-04-22T04:34:29.055Z,4.80
2023-04-22T04:36:57.008Z,4.93
2023-04-22T04:39:26.412Z,6.10
2023-04-22T04:41:55.239Z,5.35
2023-04-22T04:44:23.214Z,5.10
2023-04-22T04:46:51.929Z,5.70
2023-04-22T04:49:20.764Z,5.40
2023-04-22T04:51:50.002Z,4.90
2023-04-22T04:54:17.969Z,5.15
2023-04-22T04:56:45.854Z,4.60
2023-04-22T04:59:13.572Z,4.15
2023-04-22T05:01:41.406Z,4.75
2023-04-22T05:04:09.332Z,4.70
2023-04-22T05:06:37.163Z,4.75
2023-04-22T05:09:08.067Z,4.65
2023-04-22T05:11:36.269Z,4.60
2023-04-22T05:14:04.256Z,4.50
2023-04-22T05:16:32.170Z,4.57
2023-04-22T05:19:00.144Z,4.72
2023-04-22T05:21:28.014Z,4.05
2023-04-22T05:23:55.845Z,4.57
2023-04-22T05:26:25.138Z,4.15
2023-04-22T05:28:52.896Z,5.07
2023-04-22T05:31:20.897Z,5.15
2023-04-22T05:33:48.746Z,5.15
2023-04-22T05:36:16.603Z,4.13
2023-04-22T05:38:44.325Z,4.35
2023-04-22T05:41:12.084Z,5.22
2023-04-22T05:43:41.261Z,4.00
2023-04-22T05:46:09.179Z,5.18
2023-04-22T05:48:36.966Z,4.32
2023-04-22T05:51:05.053Z,4.95
2023-04-22T05:53:32.777Z,4.70
2023-04-22T05:56:00.616Z,4.65
2023-04-22T05:58:28.443Z,4.88
2023-04-22T06:00:57.677Z,5.20
2023-04-22T06:03:25.491Z,5.40
2023-04-22T06:05:54.042Z,4.63
2023-04-22T06:08:21.970Z,4.63
2023-04-22T06:10:49.694Z,4.55
2023-04-22T06:13:17.389Z,5.00
2023-04-22T06:15:45.274Z,5.57
2023-04-22T06:18:14.346Z,5.60
2023-04-22T06:20:42.104Z,5.15
2023-04-22T06:23:09.816Z,4.38
2023-04-22T06:25:37.694Z,5.03
2023-04-22T06:28:05.614Z,5.07
2023-04-22T06:30:33.550Z,28.95
2023-04-22T06:33:01.400Z,12.40
2023-04-22T06:35:30.543Z,19.17
2023-04-22T06:37:58.518Z,12.75
2023-04-22T06:40:26.270Z,6.45
2023-04-22T06:42:55.661Z,5.47
2023-04-22T06:45:23.525Z,4.47
2023-04-22T06:47:53.860Z,5.20
2023-04-22T06:50:22.114Z,6.15
2023-04-22T06:52:51.203Z,5.78
2023-04-22T06:55:19.234Z,5.45
2023-04-22T06:57:47.037Z,5.07
2023-04-22T07:00:15.575Z,4.85
2023-04-22T07:02:43.387Z,4.93
2023-04-22T07:05:11.264Z,4.35
2023-04-22T07:07:39.363Z,4.80
2023-04-22T07:10:09.324Z,4.35
2023-04-22T07:12:37.137Z,5.20
2023-04-22T07:15:05.411Z,4.25
2023-04-22T07:17:33.236Z,4.35
2023-04-22T07:20:01.133Z,4.65
2023-04-22T07:22:28.838Z,3.38
2023-04-22T07:24:56.767Z,3.95
2023-04-22T07:27:26.261Z,4.13
2023-04-22T07:29:54.007Z,3.67
2023-04-22T07:32:22.029Z,3.28
2023-04-22T07:34:49.761Z,3.17
2023-04-22T07:37:17.579Z,3.25
2023-04-22T07:40:02.234Z,3.70
2023-04-22T07:42:31.770Z,3.47
2023-04-22T07:44:59.749Z,2.90
2023-04-22T07:47:27.618Z,2.97
2023-04-22T07:49:55.626Z,2.97
2023-04-22T07:52:23.541Z,2.88
2023-04-22T07:54:51.733Z,3.25
2023-04-22T07:57:21.775Z,3.17
2023-04-22T07:59:50.962Z,2.95
2023-04-22T08:02:20.677Z,3.10
2023-04-22T08:04:50.248Z,2.50
2023-04-22T08:09:53.108Z,3.30
2023-04-22T08:12:22.691Z,2.88
2023-04-22T08:14:54.572Z,2.90
2023-04-22T08:17:24.068Z,2.85
2023-04-22T08:19:53.757Z,3.20
2023-04-22T08:22:24.532Z,2.90
2023-04-22T08:24:54.119Z,3.35
2023-04-22T08:27:24.543Z,3.70
2023-04-22T08:29:55.849Z,3.35
2023-04-22T08:32:27.040Z,3.42
2023-04-22T08:35:03.903Z,3.20
2023-04-22T08:37:35.896Z,3.30
2023-04-22T08:40:06.225Z,3.05
2023-04-22T08:42:37.306Z,3.20
2023-04-22T08:45:10.256Z,3.08
2023-04-22T08:47:41.684Z,3.45
2023-04-22T08:50:12.590Z,3.50
2023-04-22T08:52:43.956Z,3.20
2023-04-22T08:55:13.573Z,3.28
2023-04-22T08:57:42.594Z,3.63
2023-04-22T09:00:13.268Z,3.20
2023-04-22T09:02:44.710Z,4.07
2023-04-22T09:05:15.252Z,2.85
2023-04-22T09:07:43.426Z,3.00
2023-04-22T09:10:12.736Z,3.08
2023-04-22T09:12:42.090Z,3.17
2023-04-22T09:15:12.716Z,2.50
2023-04-22T09:17:41.308Z,2.33
2023-04-22T09:20:09.749Z,2.20
2023-04-22T09:22:41.906Z,2.80
2023-04-22T09:25:17.476Z,2.70
2023-04-22T09:27:49.727Z,2.70
2023-04-22T09:30:20.109Z,3.17
2023-04-22T09:32:55.591Z,2.67
2023-04-22T09:37:55.067Z,2.97
2023-04-22T09:40:23.162Z,2.95
2023-04-22T09:42:53.224Z,3.10
2023-04-22T09:45:32.924Z,2.70
2023-04-22T09:48:05.080Z,2.78
2023-04-22T09:50:32.853Z,2.97
2023-04-22T09:53:04.068Z,3.05
2023-04-22T09:55:33.569Z,2.80
2023-04-22T09:58:08.177Z,2.63
2023-04-22T10:00:40.967Z,2.73
2023-04-22T10:03:10.890Z,2.35
2023-04-22T10:05:39.177Z,2.17
2023-04-22T10:08:08.217Z,2.47
2023-04-22T10:10:36.567Z,2.72
2023-04-22T10:13:05.357Z,2.35
2023-04-22T10:15:35.480Z,2.42
2023-04-22T10:18:07.516Z,2.97
2023-04-22T10:20:38.752Z,3.78
2023-04-22T10:23:07.762Z,2.10
2023-04-22T10:25:35.647Z,2.92
2023-04-22T10:28:04.948Z,2.72
2023-04-22T10:30:37.513Z,2.28
2023-04-22T10:33:39.058Z,2.70
2023-04-22T10:36:09.079Z,2.42
2023-04-22T10:38:37.470Z,2.30
2023-04-22T10:41:05.916Z,3.05
2023-04-22T10:43:43.732Z,2.10
2023-04-22T10:46:45.367Z,2.00
2023-04-22T10:49:20.448Z,2.13
2023-04-22T10:51:49.578Z,1.77
2023-04-22T10:54:50.448Z,2.28
2023-04-22T10:57:22.601Z,2.10
2023-04-22T10:59:56.298Z,2.15
2023-04-22T11:02:24.932Z,2.20
2023-04-22T11:05:19.320Z,1.90
2023-04-22T11:07:50.423Z,1.88
2023-04-22T11:10:49.143Z,1.63
2023-04-22T11:13:17.929Z,1.33
2023-04-22T11:15:47.409Z,1.50
2023-04-22T11:18:18.905Z,1.42
2023-04-22T11:20:48.262Z,1.30
2023-04-22T11:23:21.883Z,1.70
2023-04-22T11:25:54.599Z,1.45
2023-04-22T11:28:23.286Z,1.70
2023-04-22T11:30:51.145Z,1.30
2023-04-22T11:33:20.142Z,1.77
2023-04-22T11:35:50.682Z,1.42
2023-04-22T11:38:19.817Z,2.33
2023-04-22T11:40:48.198Z,1.73
2023-04-22T11:43:18.367Z,1.50
2023-04-22T11:45:46.352Z,1.77
2023-04-22T11:48:16.563Z,1.60
2023-04-22T11:50:45.328Z,1.80
2023-04-22T11:53:17.553Z,1.50
2023-04-22T11:55:51.096Z,1.60
2023-04-22T11:58:20.793Z,1.67
2023-04-22T12:00:49.921Z,1.25
2023-04-22T12:03:19.703Z,1.70
2023-04-22T12:05:50.816Z,1.50
2023-04-22T12:08:19.960Z,1.75
2023-04-22T12:10:51.852Z,1.42
2023-04-22T12:13:20.981Z,1.38
2023-04-22T12:15:49.245Z,1.50
2023-04-22T12:18:17.014Z,1.50
2023-04-22T12:20:44.721Z,1.45
2023-04-22T12:23:15.960Z,2.00
2023-04-22T12:25:44.755Z,1.30
2023-04-22T12:28:14.240Z,1.83
2023-04-22T12:30:42.202Z,1.63
2023-04-22T12:33:10.155Z,1.40
2023-04-22T12:35:37.908Z,1.38
2023-04-22T12:38:05.657Z,1.60
2023-04-22T12:40:33.608Z,2.00
2023-04-22T12:43:03.364Z,1.52
2023-04-22T12:45:32.447Z,1.55
2023-04-22T12:48:00.756Z,1.65
2023-04-22T12:50:28.636Z,2.00
2023-04-22T12:52:56.481Z,1.92
2023-04-22T12:55:24.403Z,1.85
2023-04-22T12:57:52.420Z,1.58
2023-04-22T13:00:20.759Z,2.03
2023-04-22T13:02:50.545Z,1.70
2023-04-22T13:05:19.845Z,1.80
2023-04-22T13:07:59.617Z,1.90
2023-04-22T13:10:31.601Z,1.60
2023-04-22T13:13:10.204Z,1.60
2023-04-22T13:15:44.425Z,1.90
2023-04-22T13:18:13.593Z,2.05
2023-04-22T13:20:42.343Z,1.52
2023-04-22T13:23:10.569Z,1.65
2023-04-22T13:25:38.566Z,2.05
2023-04-22T13:28:06.750Z,1.55
2023-04-22T13:30:34.562Z,2.03
2023-04-22T13:33:02.347Z,2.13
2023-04-22T13:35:32.098Z,1.90
2023-04-22T13:37:59.927Z,1.75
2023-04-22T13:40:27.737Z,1.60
2023-04-22T13:42:55.651Z,1.95
2023-04-22T13:45:23.499Z,2.65
2023-04-22T13:47:52.096Z,1.70
2023-04-22T13:50:19.839Z,1.60
2023-04-22T13:52:49.052Z,1.58
2023-04-22T13:55:16.856Z,1.60
2023-04-22T13:57:45.362Z,1.40
2023-04-22T14:00:13.920Z,1.50
2023-04-22T14:02:41.807Z,1.52
2023-04-22T14:05:10.770Z,2.17
2023-04-22T14:07:38.605Z,1.90
2023-04-22T14:10:11.831Z,1.38
2023-04-22T14:12:39.671Z,1.90
2023-04-22T14:15:10.710Z,1.40
2023-04-22T14:17:38.704Z,1.45
2023-04-22T14:20:07.735Z,1.30
2023-04-22T14:22:35.575Z,0.98
2023-04-22T14:25:03.329Z,1.20
2023-04-22T14:27:32.938Z,2.03
2023-04-22T14:30:00.673Z,1.30
2023-04-22T14:32:29.275Z,1.38
2023-04-22T14:34:57.058Z,1.60
2023-04-22T14:37:24.862Z,1.38
2023-04-22T14:39:52.703Z,3.03
2023-04-22T14:42:20.491Z,1.17
2023-04-22T14:44:49.579Z,1.45
2023-04-22T14:47:17.289Z,1.33
2023-04-22T14:49:45.133Z,1.45
2023-04-22T14:52:12.960Z,1.52
2023-04-22T14:54:40.706Z,1.00
2023-04-22T14:57:08.468Z,1.10
2023-04-22T14:59:36.273Z,1.50
2023-04-22T15:02:05.846Z,0.93
2023-04-22T15:04:33.884Z,1.35
2023-04-22T15:07:02.690Z,1.10
2023-04-22T15:09:30.444Z,1.20
2023-04-22T15:11:59.507Z,2.17
2023-04-22T15:14:27.222Z,1.25
2023-04-22T15:16:55.240Z,1.50
2023-04-22T15:19:24.412Z,1.80
2023-04-22T15:21:52.162Z,1.98
2023-04-22T15:24:21.341Z,2.05
2023-04-22T15:26:49.304Z,1.40
2023-04-22T15:29:17.062Z,1.67
2023-04-22T15:31:45.817Z,2.05
2023-04-22T15:34:13.715Z,1.80
2023-04-22T15:36:43.426Z,1.60
2023-04-22T15:39:12.088Z,1.10
2023-04-22T15:41:41.816Z,1.15
2023-04-22T15:44:11.115Z,1.10
2023-04-22T15:46:40.707Z,1.23
2023-04-22T15:49:08.487Z,1.48
2023-04-22T15:51:36.193Z,1.40
2023-04-22T15:54:05.364Z,1.60
2023-04-22T15:56:34.474Z,1.48
2023-04-22T15:59:02.343Z,1.70
2023-04-22T16:01:30.232Z,1.50
2023-04-22T16:03:58.302Z,1.58
2023-04-22T16:06:26.416Z,1.08
2023-04-22T16:08:54.148Z,2.85
2023-04-22T16:11:23.192Z,2.22
2023-04-22T16:13:51.012Z,2.42
2023-04-22T16:16:18.748Z,2.55
2023-04-22T16:18:46.579Z,2.05
2023-04-22T16:21:14.393Z,1.80
2023-04-22T16:23:42.115Z,2.28
2023-04-22T16:26:10.423Z,1.80
2023-04-22T16:28:39.528Z,1.80
2023-04-22T16:31:08.643Z,2.10
2023-04-22T16:33:36.941Z,1.98
2023-04-22T16:36:04.988Z,2.03
2023-04-22T16:38:32.811Z,1.90
2023-04-22T16:41:00.673Z,1.55
2023-04-22T16:43:28.428Z,1.98
2023-04-22T16:45:57.544Z,1.60
2023-04-22T16:48:25.416Z,1.77
2023-04-22T16:50:53.314Z,1.90
2023-04-22T16:53:21.104Z,1.67
2023-04-22T16:55:48.817Z,1.80
2023-04-22T16:58:16.532Z,2.42
2023-04-22T17:00:45.759Z,2.42
2023-04-22T17:03:16.859Z,2.13
2023-04-22T17:05:44.707Z,2.20
2023-04-22T17:08:12.477Z,2.42
2023-04-22T17:10:44.984Z,1.85
2023-04-22T17:13:13.964Z,2.33
2023-04-22T17:15:42.422Z,2.40
2023-04-22T17:18:10.554Z,1.90
2023-04-22T17:20:39.748Z,1.90
2023-04-22T17:23:07.538Z,2.15
2023-04-22T17:25:35.279Z,2.10
2023-04-22T17:28:03.287Z,2.50
2023-04-22T17:30:31.095Z,2.70
2023-04-22T17:32:58.999Z,2.85
2023-04-22T17:35:26.764Z,3.05
2023-04-22T17:37:57.683Z,4.13
2023-04-22T17:40:25.772Z,4.03
2023-04-22T17:42:53.566Z,4.07
2023-04-22T17:45:21.469Z,2.83
2023-04-22T17:47:49.392Z,3.20
2023-04-22T17:50:17.300Z,3.47
2023-04-22T17:52:45.280Z,3.05
2023-04-22T17:55:14.353Z,3.97
2023-04-22T17:57:42.226Z,4.28
2023-04-22T18:00:11.226Z,3.92
2023-04-22T18:02:39.173Z,3.92
2023-04-22T18:05:07.423Z,2.88
2023-04-22T18:07:35.427Z,2.75
2023-04-22T18:10:03.157Z,2.88
2023-04-22T18:12:32.291Z,2.38
2023-04-22T18:15:00.061Z,2.05
2023-04-22T18:17:27.796Z,4.22
2023-04-22T18:20:09.602Z,3.60
2023-04-22T18:22:42.553Z,5.43
2023-04-22T18:25:10.602Z,2.40
2023-04-22T18:27:39.697Z,2.10
2023-04-22T18:30:08.471Z,1.70
2023-04-22T18:32:37.139Z,1.73
2023-04-22T18:35:05.832Z,1.85
2023-04-22T18:37:34.700Z,2.13
2023-04-22T18:40:02.860Z,2.10
2023-04-22T18:42:30.865Z,2.03
2023-04-22T18:45:00.992Z,2.10
2023-04-22T18:47:29.702Z,2.03
2023-04-22T18:49:57.803Z,2.28
2023-04-22T18:52:25.856Z,1.70
2023-04-22T18:54:53.622Z,1.45
2023-04-22T18:57:21.392Z,1.33
2023-04-22T18:59:50.980Z,1.63
2023-04-22T19:02:20.175Z,1.48
2023-04-22T19:04:48.185Z,1.80
2023-04-22T19:07:15.993Z,1.85
2023-04-22T19:09:43.756Z,1.48
2023-04-22T19:12:14.588Z,1.38
2023-04-22T19:14:42.878Z,1.67
2023-04-22T19:17:10.973Z,1.77
2023-04-22T19:19:40.384Z,1.20
2023-04-22T19:22:08.455Z,2.10
2023-04-22T19:24:36.771Z,1.55
2023-04-22T19:27:06.924Z,1.60
2023-04-22T19:29:34.717Z,1.80
2023-04-22T19:32:03.320Z,1.30
2023-04-22T19:34:31.203Z,1.88
2023-04-22T19:37:00.680Z,1.50
2023-04-22T19:39:28.404Z,1.65
2023-04-22T19:41:56.170Z,1.77
2023-04-22T19:44:24.130Z,2.17
2023-04-22T19:46:52.304Z,1.80
2023-04-22T19:49:20.915Z,2.00
2023-04-22T19:51:49.458Z,1.90
2023-04-22T19:54:21.362Z,2.05
2023-04-22T19:56:49.821Z,1.65
2023-04-22T19:59:19.403Z,2.10
2023-04-22T20:01:47.541Z,2.00
2023-04-22T20:04:15.996Z,2.10
2023-04-22T20:06:45.632Z,1.92
2023-04-22T20:09:15.311Z,2.70
2023-04-22T20:11:44.627Z,2.00
2023-04-22T20:14:13.624Z,2.05
2023-04-22T20:16:42.279Z,1.95
2023-04-22T20:19:11.447Z,2.20
2023-04-22T20:21:40.862Z,2.10
2023-04-22T20:24:08.992Z,2.22
2023-04-22T20:26:36.819Z,1.83
2023-04-22T20:29:07.883Z,2.20
2023-04-22T20:31:36.106Z,2.75
2023-04-22T20:34:04.757Z,2.80
2023-04-22T20:36:32.713Z,2.40
2023-04-22T20:39:05.109Z,2.47
2023-04-22T20:41:38.600Z,2.58
2023-04-22T20:44:08.457Z,2.13
2023-04-22T20:46:37.339Z,2.08
2023-04-22T20:49:05.696Z,2.38
2023-04-22T20:51:33.749Z,2.25
2023-04-22T20:54:01.695Z,1.92
2023-04-22T20:56:29.544Z,2.13
2023-04-22T20:58:57.235Z,2.20
2023-04-22T21:01:27.387Z,2.05
2023-04-22T21:03:57.767Z,2.10
2023-04-22T21:06:27.953Z,2.08
2023-04-22T21:08:56.333Z,2.10
2023-04-22T21:11:24.702Z,2.40
2023-04-22T21:13:54.096Z,2.47
2023-04-22T21:16:29.511Z,2.28
2023-04-22T21:19:00.313Z,2.28
2023-04-22T21:21:33.927Z,2.17
2023-04-22T21:24:02.767Z,1.83
2023-04-22T21:26:31.018Z,2.13
2023-04-22T21:28:59.561Z,2.22
2023-04-22T21:31:28.777Z,2.22
2023-04-22T21:33:56.533Z,1.83
2023-04-22T21:36:24.979Z,2.55
2023-04-22T21:38:52.796Z,1.80
2023-04-22T21:41:20.546Z,2.75
2023-04-22T21:43:48.285Z,2.45
2023-04-22T21:46:16.157Z,3.35
2023-04-22T21:48:45.326Z,3.45
2023-04-22T21:51:13.086Z,2.60
2023-04-22T21:53:40.942Z,3.20
2023-04-22T21:56:08.664Z,2.67
2023-04-22T21:58:36.363Z,3.42
2023-04-22T22:01:04.149Z,2.58
2023-04-22T22:03:32.199Z,2.88
2023-04-22T22:06:01.546Z,2.78
2023-04-22T22:08:30.574Z,2.30
2023-04-22T22:10:59.388Z,2.20
2023-04-22T22:13:27.228Z,2.83
2023-04-22T22:15:57.144Z,2.75
2023-04-22T22:18:24.899Z,2.50
2023-04-22T22:20:53.756Z,2.72
2023-04-22T22:23:22.930Z,2.25
2023-04-22T22:25:50.765Z,2.60
2023-04-22T22:28:18.572Z,2.30
2023-04-22T22:30:46.340Z,2.60
2023-04-22T22:33:14.196Z,2.80
2023-04-22T22:35:42.032Z,2.20
2023-04-22T22:38:09.769Z,2.72
2023-04-22T22:40:38.864Z,3.28
2023-04-22T22:43:06.823Z,2.65
2023-04-22T22:45:34.704Z,2.42
2023-04-22T22:48:02.579Z,2.65
2023-04-22T22:50:30.328Z,2.42
2023-04-22T22:52:58.036Z,2.70
2023-04-22T22:55:27.209Z,2.65
2023-04-22T22:57:56.269Z,2.20
2023-04-22T23:00:24.090Z,3.13
2023-04-22T23:02:52.299Z,2.67
2023-04-22T23:05:20.647Z,3.47
2023-04-22T23:07:48.553Z,2.90
2023-04-22T23:10:16.290Z,3.55
2023-04-22T23:12:43.966Z,2.70
2023-04-22T23:15:13.450Z,2.30
2023-04-22T23:17:41.210Z,2.83
2023-04-22T23:20:10.861Z,2.63
2023-04-22T23:22:40.137Z,2.97
2023-04-22T23:25:09.405Z,2.45
2023-04-22T23:27:37.691Z,3.10
2023-04-22T23:30:06.719Z,2.63
2023-04-22T23:32:36.810Z,2.50
2023-04-22T23:35:05.877Z,2.78
2023-04-22T23:37:35.442Z,3.28
2023-04-22T23:40:04.578Z,2.35
2023-04-22T23:42:32.303Z,2.47
2023-04-22T23:45:00.062Z,2.58
2023-04-22T23:47:28.170Z,2.58
2023-04-22T23:49:57.217Z,2.55
2023-04-22T23:52:25.033Z,2.30
2023-04-22T23:54:54.984Z,2.20
2023-04-22T23:57:23.242Z,2.30
2023-04-22T23:59:51.604Z,2.38
